createdAt,value
2022-12-23T00:01:25.766Z,102072.72
2022-12-23T00:03:58.752Z,102068.16
2022-12-23T00:06:28.327Z,102004.25
2022-12-23T00:08:59.823Z,101972.22
2022-12-23T00:11:31.189Z,102042.78
2022-12-23T00:14:21.928Z,102166.19
2022-12-23T00:16:52.516Z,101927.22
2022-12-23T00:19:22.573Z,102180.97
2022-12-23T00:21:52.030Z,101959.31
2022-12-23T00:24:21.328Z,102139.16
2022-12-23T00:26:52.103Z,102173.63
2022-12-23T00:29:24.985Z,102172.75
2022-12-23T00:31:54.738Z,102018.09
2022-12-23T00:34:24.098Z,102057.69
2022-12-23T00:36:53.299Z,102157.81
2022-12-23T00:39:39.448Z,102219.25
2022-12-23T00:42:27.966Z,102063.19
2022-12-23T00:45:16.159Z,102224.38
2022-12-23T00:48:02.794Z,102052.44
2022-12-23T00:50:32.560Z,102175.28
2022-12-23T00:53:04.516Z,102219.91
2022-12-23T00:55:34.361Z,102114.75
2022-12-23T00:58:05.224Z,102040.75
2022-12-23T01:00:51.420Z,102235.41
2022-12-23T01:03:37.546Z,102227.72
2022-12-23T01:06:06.918Z,102206.13
2022-12-23T01:08:36.017Z,102232.19
2022-12-23T01:11:06.163Z,102219.59
2022-12-23T01:13:37.610Z,102215.94
2022-12-23T01:16:15.108Z,102228.38
2022-12-23T01:18:47.223Z,102249.41
2022-12-23T01:21:17.312Z,102254.78
2022-12-23T01:23:46.709Z,102245.09
2022-12-23T01:26:15.992Z,102262.69
2022-12-23T01:28:47.281Z,102251.09
2022-12-23T01:31:16.794Z,102229.16
2022-12-23T01:33:46.509Z,102256.66
2022-12-23T01:36:15.899Z,102259.34
2022-12-23T01:38:45.607Z,102262.91
2022-12-23T01:41:39.063Z,102258.91
2022-12-23T01:44:40.157Z,102221.50
2022-12-23T01:47:13.963Z,102268.94
2022-12-23T01:49:44.267Z,102261.91
2022-12-23T01:52:15.198Z,102251.91
2022-12-23T01:54:45.928Z,102265.59
2022-12-23T01:57:15.236Z,102256.91
2022-12-23T02:00:02.755Z,102257.13
2022-12-23T02:02:52.852Z,102277.78
2022-12-23T02:05:23.162Z,102217.81
2022-12-23T02:08:12.464Z,102270.16
2022-12-23T02:10:58.105Z,102289.06
2022-12-23T02:13:33.749Z,102292.94
2022-12-23T02:16:18.618Z,102275.69
2022-12-23T02:19:12.747Z,102303.16
2022-12-23T02:22:10.699Z,102295.47
2022-12-23T02:25:09.261Z,102307.25
2022-12-23T02:27:51.652Z,102276.75
2022-12-23T02:30:36.955Z,102300.66
2022-12-23T02:33:22.827Z,102312.91
2022-12-23T02:36:01.451Z,102306.78
2022-12-23T02:38:36.253Z,102314.78
2022-12-23T02:41:11.230Z,102201.34
2022-12-23T02:43:46.311Z,102310.09
2022-12-23T02:46:23.425Z,102324.13
2022-12-23T02:48:58.600Z,102312.84
2022-12-23T02:51:32.790Z,102339.63
2022-12-23T02:54:06.459Z,102343.31
2022-12-23T02:56:40.011Z,102341.88
2022-12-23T02:59:14.121Z,102340.97
2022-12-23T03:01:46.839Z,102316.56
2022-12-23T03:04:16.825Z,102343.66
2022-12-23T03:06:48.264Z,102340.50
2022-12-23T03:09:26.339Z,102349.44
2022-12-23T03:12:02.582Z,102348.88
2022-12-23T03:14:52.282Z,102342.88
2022-12-23T03:17:43.350Z,102356.59
2022-12-23T03:20:23.031Z,102349.16
2022-12-23T03:23:00.987Z,102339.69
2022-12-23T03:25:36.696Z,102336.00
2022-12-23T03:28:12.963Z,102345.13
2022-12-23T03:30:44.797Z,102355.06
2022-12-23T03:33:19.532Z,102355.19
2022-12-23T03:35:53.355Z,102349.75
2022-12-23T03:38:24.807Z,102354.31
2022-12-23T03:40:58.743Z,102364.22
2022-12-23T03:43:30.795Z,102364.31
2022-12-23T03:46:03.588Z,102358.88
2022-12-23T03:48:37.655Z,102372.44
2022-12-23T03:51:13.358Z,102376.13
2022-12-23T03:53:48.551Z,102364.22
2022-12-23T03:56:22.198Z,102386.38
2022-12-23T03:58:56.672Z,102378.25
2022-12-23T04:01:33.184Z,102389.84
2022-12-23T04:04:08.602Z,102360.19
2022-12-23T04:06:55.613Z,102403.00
2022-12-23T04:09:28.668Z,102369.53
2022-12-23T04:11:59.301Z,102410.84
2022-12-23T04:14:28.389Z,102414.38
2022-12-23T04:16:59.940Z,102412.66
2022-12-23T04:19:30.567Z,102410.59
2022-12-23T04:22:00.048Z,102424.88
2022-12-23T04:24:29.190Z,102426.38
2022-12-23T04:26:58.328Z,102440.91
2022-12-23T04:29:27.518Z,102422.19
2022-12-23T04:31:56.725Z,102436.66
2022-12-23T04:34:25.895Z,102443.59
2022-12-23T04:36:56.534Z,102444.34
2022-12-23T04:39:25.710Z,102442.66
2022-12-23T04:41:54.897Z,102420.38
2022-12-23T04:44:24.043Z,102444.34
2022-12-23T04:46:53.175Z,102442.31
2022-12-23T04:49:22.284Z,102454.97
2022-12-23T04:51:51.359Z,102458.63
2022-12-23T04:54:21.972Z,102461.78
2022-12-23T04:56:51.127Z,102458.47
2022-12-23T04:59:20.207Z,102468.31
2022-12-23T05:01:49.440Z,102451.75
2022-12-23T05:04:18.760Z,102460.41
2022-12-23T05:06:47.913Z,102462.19
2022-12-23T05:09:17.052Z,102457.00
2022-12-23T05:11:47.913Z,102403.75
2022-12-23T05:14:19.236Z,102413.91
2022-12-23T05:16:48.398Z,102461.38
2022-12-23T05:19:20.171Z,102364.31
2022-12-23T05:21:49.374Z,102271.94
2022-12-23T05:24:18.479Z,102452.41
2022-12-23T05:26:55.663Z,102478.59
2022-12-23T05:29:28.808Z,102471.84
2022-12-23T05:31:58.002Z,102459.19
2022-12-23T05:34:27.176Z,102481.03
2022-12-23T05:36:56.343Z,102448.41
2022-12-23T05:39:25.553Z,102482.97
2022-12-23T05:41:56.153Z,102469.22
2022-12-23T05:44:25.337Z,102473.31
2022-12-23T05:46:54.435Z,102474.84
2022-12-23T05:49:25.805Z,102478.16
2022-12-23T05:51:54.960Z,102506.75
2022-12-23T05:54:24.077Z,102491.28
2022-12-23T05:56:53.134Z,102498.31
2022-12-23T05:59:29.017Z,102496.28
2022-12-23T06:02:00.229Z,102503.41
2022-12-23T06:04:29.763Z,102510.56
2022-12-23T06:06:59.069Z,102467.44
2022-12-23T06:09:28.216Z,102514.28
2022-12-23T06:11:57.422Z,102491.47
2022-12-23T06:14:29.386Z,102510.63
2022-12-23T06:16:59.033Z,102490.19
2022-12-23T06:19:28.861Z,102533.28
2022-12-23T06:21:57.939Z,102504.78
2022-12-23T06:24:27.089Z,102534.69
2022-12-23T06:26:57.493Z,102528.28
2022-12-23T06:29:28.373Z,102536.72
2022-12-23T06:31:57.677Z,102532.00
2022-12-23T06:34:27.014Z,102510.16
2022-12-23T06:36:56.132Z,102542.84
2022-12-23T06:39:25.383Z,102532.25
2022-12-23T06:41:54.594Z,102548.22
2022-12-23T06:44:23.770Z,102547.72
2022-12-23T06:46:55.183Z,102484.50
2022-12-23T06:49:24.445Z,102449.91
2022-12-23T06:51:53.688Z,102344.31
2022-12-23T06:54:22.864Z,102553.06
2022-12-23T06:56:52.282Z,102376.59
2022-12-23T06:59:21.529Z,102355.47
2022-12-23T07:01:50.867Z,102366.41
2022-12-23T07:04:21.970Z,102458.81
2022-12-23T07:06:51.214Z,102469.06
2022-12-23T07:09:20.643Z,102481.53
2022-12-23T07:11:49.996Z,102421.41
2022-12-23T07:14:19.226Z,102552.56
2022-12-23T07:16:48.685Z,102490.41
2022-12-23T07:19:18.058Z,102565.19
2022-12-23T07:21:48.814Z,102550.28
2022-12-23T07:24:17.865Z,102577.13
2022-12-23T07:26:47.031Z,102566.63
2022-12-23T07:29:16.389Z,102547.22
2022-12-23T07:31:45.807Z,102546.94
2022-12-23T07:34:19.854Z,102515.66
2022-12-23T07:36:50.650Z,102567.41
2022-12-23T07:39:20.126Z,102552.34
2022-12-23T07:41:52.750Z,102566.41
2022-12-23T07:44:35.039Z,102434.03
2022-12-23T07:47:04.648Z,102552.06
2022-12-23T07:49:34.163Z,102562.66
2022-12-23T07:52:05.221Z,102573.28
2022-12-23T07:54:34.443Z,102547.19
2022-12-23T07:57:03.960Z,102505.03
2022-12-23T07:59:33.274Z,102567.00
2022-12-23T08:02:02.827Z,102560.22
2022-12-23T08:04:34.631Z,102565.34
2022-12-23T08:07:07.564Z,102564.06
2022-12-23T08:09:36.684Z,102519.69
2022-12-23T08:12:06.218Z,102567.00
2022-12-23T08:14:35.332Z,102545.38
2022-12-23T08:17:04.608Z,102577.31
2022-12-23T08:19:33.807Z,102582.56
2022-12-23T08:22:04.453Z,102542.81
2022-12-23T08:24:33.595Z,102587.16
2022-12-23T08:27:02.816Z,102585.97
2022-12-23T08:29:36.156Z,102583.06
2022-12-23T08:32:05.821Z,102588.75
2022-12-23T08:34:35.193Z,102566.78
2022-12-23T08:37:05.943Z,102579.41
2022-12-23T08:39:35.207Z,102582.59
2022-12-23T08:42:04.458Z,102586.97
2022-12-23T08:44:33.636Z,102596.91
2022-12-23T08:47:02.850Z,102594.06
2022-12-23T08:49:32.148Z,102583.81
2022-12-23T08:52:01.267Z,102595.06
2022-12-23T08:54:32.015Z,102601.41
2022-12-23T08:57:01.273Z,102596.06
2022-12-23T08:59:30.428Z,102578.53
2022-12-23T09:02:02.498Z,102605.44
2022-12-23T09:04:31.679Z,102593.94
2022-12-23T09:07:00.875Z,102603.75
2022-12-23T09:09:31.486Z,102605.91
2022-12-23T09:12:00.657Z,102605.59
2022-12-23T09:14:29.756Z,102597.91
2022-12-23T09:16:58.877Z,102610.66
2022-12-23T09:19:27.958Z,102611.16
2022-12-23T09:21:57.093Z,102624.38
